YBCGYMHB

Guest
Details From YBCG - Gold Coast International
To YMHB - Hobart
Flight Number -
Tags decoded
Created
Modified
Stats Distance 1,086 nm / 2,011 km
Max Altitude 0 ft / 0 m
Waypoints 4
Social Downloads 1
Likes 0
Share VATSIM

Download

Looking for another format? Having issues loading an existing format? Contact us
Advertisement - Login to hide

Notes

Requested: YBCG YWOL YMML YMHB

Route

YBCG YWOL YMML YMHB

ID Type Via Altitude Latitude Longitude Leg Dist Tot Dist Heading (true) Name
O YBCG APT - 0 ft / 0 m -28.16604˚ 153.50616˚ - 0 nm - Gold Coast International
YWOL APT - 0 ft / 0 m -34.56115˚ 150.78814˚ 408 nm 408 nm 199° / 201° Wollongong
YMML APT - 0 ft / 0 m -37.66530˚ 144.83667˚ 343 nm 752 nm 235° / 239° Melbourne Intl
O YMHB APT - 0 ft / 0 m -42.83617˚ 147.51180˚ 333 nm 1085 nm 159° / 158° Hobart

Altitude Profile

Advertisement - Login to hide

Weather


0- 5 10 15 20 25 30 35+ Temperature / ° C

Clouds and Precipitation
Forecast for 2018-05-27 12:00 UTC. Updated 40 minutes ago

Ground ~20,000 ft ~40,000 ft Winds

YBCG

Details ICAO YBCG (OOL)
Name Gold Coast International
Region Australia
Timezone Australia/Brisbane (UTC+10.0)
Stats Elevation 20 ft / 6 m (AMSL)
Location -28.166035° 153.506155°
Runways 2
Magnetic Variation 11.333° E

METAR

YBCG 271200Z AUTO 19006KT 9999 // SCT047 SCT057 BKN065 17/14 Q1025

Decode

TAF

TAF YBCG 271138Z 2712/2812 20006KT 9999 -SHRA SCT025 FM272300 16012KT 9999 SCT030 FM280800 21006KT 9999 -SHRA SCT025 INTER 2712/2715 3000 SHRA BKN012 INTER 2808/2812 3000 SHRA BKN012

Decode

Departure Runways

ID Width Length Bearing (true) Bearing (mag) Surface Threshold Offset Overrun Length
14 148 ft / 45 m 7,687 ft / 2,343 m 150.04° 138.71° Asphalt 0 ft / 0 m 394 ft / 120 m
17 59 ft / 18 m 1,911 ft / 582 m 184.00° 172.67° Asphalt 0 ft / 0 m 0 ft / 0 m
32 148 ft / 45 m 7,687 ft / 2,343 m 330.04° 318.71° Asphalt 0 ft / 0 m 394 ft / 120 m
35 59 ft / 18 m 1,911 ft / 582 m 4.00° 352.67° Asphalt 0 ft / 0 m 0 ft / 0 m

YMHB

Details ICAO YMHB (HBA)
Name Hobart
Region Australia
Timezone Australia/Hobart (UTC+10.0)
Stats Elevation 12 ft / 4 m (AMSL)
Location -42.836167° 147.511798°
Runways 1
Magnetic Variation 15.114° E

METAR

YMHB 271200Z 34009KT CAVOK 09/05 Q1021

Decode

TAF

TAF YMHB 271113Z 2712/2812 33010KT CAVOK FM280000 36012KT 9999 FEW050

Decode

Destination Runways

ID Width Length Bearing (true) Bearing (mag) Surface Threshold Offset Overrun Length
12 148 ft / 45 m 7,379 ft / 2,249 m 135.11° 120.00° Asphalt 0 ft / 0 m 0 ft / 0 m
30 148 ft / 45 m 7,379 ft / 2,249 m 315.09° 299.98° Asphalt 0 ft / 0 m 0 ft / 0 m

Approach Navaids

Runway Type Ident Frequency Range Bearing (true) Bearing (mag) Slope Elevation
12 Localiser IHB 109.90 MHz 18 nm / 33 km 135.13° 120.02° - 12 ft / 4 m (AMSL)
12 Glidescope IHB 109.90 MHz 10 nm / 19 km 135.10° 119.99° 3.00° 12 ft / 4 m (AMSL)